sensor_id;sensor_type;location;lat;lon;timestamp;P1;durP1;ratioP1;P2;durP2;ratioP2
37297;SDS011;30517;51.932;4.278;2023-02-08T00:00:14;9.45;;;5.30;;
37297;SDS011;30517;51.932;4.278;2023-02-08T00:02:55;8.93;;;6.10;;
37297;SDS011;30517;51.932;4.278;2023-02-08T00:05:35;8.68;;;5.38;;
37297;SDS011;30517;51.932;4.278;2023-02-08T00:08:17;10.02;;;5.82;;
37297;SDS011;30517;51.932;4.278;2023-02-08T00:10:57;9.48;;;5.95;;
37297;SDS011;30517;51.932;4.278;2023-02-08T00:13:39;10.95;;;6.63;;
37297;SDS011;30517;51.932;4.278;2023-02-08T00:16:20;11.45;;;6.10;;
37297;SDS011;30517;51.932;4.278;2023-02-08T00:19:01;10.50;;;6.15;;
37297;SDS011;30517;51.932;4.278;2023-02-08T00:21:42;10.57;;;5.70;;
37297;SDS011;30517;51.932;4.278;2023-02-08T00:24:23;10.77;;;6.30;;
37297;SDS011;30517;51.932;4.278;2023-02-08T00:27:03;10.43;;;6.53;;
37297;SDS011;30517;51.932;4.278;2023-02-08T00:29:44;10.93;;;6.53;;
37297;SDS011;30517;51.932;4.278;2023-02-08T00:32:25;11.55;;;6.03;;
37297;SDS011;30517;51.932;4.278;2023-02-08T00:35:06;11.32;;;6.28;;
37297;SDS011;30517;51.932;4.278;2023-02-08T00:37:47;11.48;;;6.03;;
37297;SDS011;30517;51.932;4.278;2023-02-08T00:40:28;10.60;;;6.05;;
37297;SDS011;30517;51.932;4.278;2023-02-08T00:43:09;12.25;;;6.72;;
37297;SDS011;30517;51.932;4.278;2023-02-08T00:45:53;12.15;;;6.65;;
37297;SDS011;30517;51.932;4.278;2023-02-08T00:48:38;10.27;;;6.63;;
37297;SDS011;30517;51.932;4.278;2023-02-08T00:51:19;10.40;;;6.63;;
37297;SDS011;30517;51.932;4.278;2023-02-08T00:54:00;10.13;;;5.88;;
37297;SDS011;30517;51.932;4.278;2023-02-08T00:56:41;11.05;;;6.53;;
37297;SDS011;30517;51.932;4.278;2023-02-08T00:59:22;12.38;;;6.25;;
37297;SDS011;30517;51.932;4.278;2023-02-08T01:02:03;11.48;;;6.68;;
37297;SDS011;30517;51.932;4.278;2023-02-08T01:04:44;13.52;;;7.05;;
37297;SDS011;30517;51.932;4.278;2023-02-08T01:10:08;10.60;;;6.57;;
37297;SDS011;30517;51.932;4.278;2023-02-08T01:12:51;9.97;;;6.27;;
37297;SDS011;30517;51.932;4.278;2023-02-08T01:15:32;11.70;;;6.88;;
37297;SDS011;30517;51.932;4.278;2023-02-08T01:18:12;10.68;;;6.15;;
37297;SDS011;30517;51.932;4.278;2023-02-08T01:20:53;10.38;;;6.47;;
37297;SDS011;30517;51.932;4.278;2023-02-08T01:23:34;11.45;;;7.13;;
37297;SDS011;30517;51.932;4.278;2023-02-08T01:26:16;10.65;;;6.75;;
37297;SDS011;30517;51.932;4.278;2023-02-08T01:28:57;11.27;;;7.20;;
37297;SDS011;30517;51.932;4.278;2023-02-08T01:31:39;14.02;;;8.02;;
37297;SDS011;30517;51.932;4.278;2023-02-08T01:34:21;11.23;;;7.15;;
37297;SDS011;30517;51.932;4.278;2023-02-08T01:37:02;10.63;;;6.22;;
37297;SDS011;30517;51.932;4.278;2023-02-08T01:39:43;10.48;;;6.07;;
37297;SDS011;30517;51.932;4.278;2023-02-08T01:42:23;11.23;;;6.88;;
37297;SDS011;30517;51.932;4.278;2023-02-08T01:48:01;9.85;;;6.10;;
37297;SDS011;30517;51.932;4.278;2023-02-08T01:50:49;9.68;;;6.60;;
37297;SDS011;30517;51.932;4.278;2023-02-08T01:53:37;12.10;;;7.35;;
37297;SDS011;30517;51.932;4.278;2023-02-08T01:56:24;11.63;;;6.72;;
37297;SDS011;30517;51.932;4.278;2023-02-08T01:59:09;10.77;;;6.60;;
37297;SDS011;30517;51.932;4.278;2023-02-08T02:01:56;9.80;;;5.78;;
37297;SDS011;30517;51.932;4.278;2023-02-08T02:04:38;10.00;;;6.40;;
37297;SDS011;30517;51.932;4.278;2023-02-08T02:07:20;13.13;;;6.88;;
37297;SDS011;30517;51.932;4.278;2023-02-08T02:10:09;14.50;;;7.37;;
37297;SDS011;30517;51.932;4.278;2023-02-08T02:12:54;10.90;;;6.70;;
37297;SDS011;30517;51.932;4.278;2023-02-08T02:15:40;10.70;;;6.30;;
37297;SDS011;30517;51.932;4.278;2023-02-08T02:18:24;11.50;;;6.50;;
37297;SDS011;30517;51.932;4.278;2023-02-08T02:39:56;11.20;;;5.83;;
37297;SDS011;30517;51.932;4.278;2023-02-08T02:51:59;9.90;;;6.22;;
37297;SDS011;30517;51.932;4.278;2023-02-08T02:54:45;11.48;;;6.63;;
37297;SDS011;30517;51.932;4.278;2023-02-08T02:57:30;10.55;;;6.68;;
37297;SDS011;30517;51.932;4.278;2023-02-08T03:00:17;10.90;;;6.40;;
37297;SDS011;30517;51.932;4.278;2023-02-08T03:03:01;10.70;;;6.07;;
37297;SDS011;30517;51.932;4.278;2023-02-08T03:05:43;9.77;;;5.82;;
37297;SDS011;30517;51.932;4.278;2023-02-08T03:11:34;11.02;;;6.40;;
37297;SDS011;30517;51.932;4.278;2023-02-08T03:17:18;10.95;;;6.53;;
37297;SDS011;30517;51.932;4.278;2023-02-08T03:20:21;11.38;;;5.88;;
37297;SDS011;30517;51.932;4.278;2023-02-08T03:23:28;10.68;;;6.13;;
37297;SDS011;30517;51.932;4.278;2023-02-08T03:26:22;11.07;;;6.30;;
37297;SDS011;30517;51.932;4.278;2023-02-08T03:29:18;7.90;;;5.20;;
37297;SDS011;30517;51.932;4.278;2023-02-08T03:32:09;10.05;;;6.60;;
37297;SDS011;30517;51.932;4.278;2023-02-08T03:34:59;9.85;;;6.45;;
37297;SDS011;30517;51.932;4.278;2023-02-08T03:37:49;9.55;;;5.95;;
37297;SDS011;30517;51.932;4.278;2023-02-08T03:40:48;9.05;;;5.82;;
37297;SDS011;30517;51.932;4.278;2023-02-08T03:43:33;12.52;;;6.55;;
37297;SDS011;30517;51.932;4.278;2023-02-08T03:46:23;11.45;;;6.00;;
37297;SDS011;30517;51.932;4.278;2023-02-08T03:49:11;11.75;;;6.32;;
37297;SDS011;30517;51.932;4.278;2023-02-08T03:51:57;10.55;;;5.93;;
37297;SDS011;30517;51.932;4.278;2023-02-08T03:54:41;11.35;;;6.10;;
37297;SDS011;30517;51.932;4.278;2023-02-08T03:57:29;11.45;;;6.43;;
37297;SDS011;30517;51.932;4.278;2023-02-08T04:00:15;11.50;;;5.95;;
37297;SDS011;30517;51.932;4.278;2023-02-08T04:02:59;11.40;;;6.07;;
37297;SDS011;30517;51.932;4.278;2023-02-08T04:05:45;13.40;;;6.32;;
37297;SDS011;30517;51.932;4.278;2023-02-08T04:08:27;11.57;;;6.45;;
37297;SDS011;30517;51.932;4.278;2023-02-08T04:11:08;12.65;;;6.63;;
37297;SDS011;30517;51.932;4.278;2023-02-08T04:13:49;10.40;;;6.30;;
37297;SDS011;30517;51.932;4.278;2023-02-08T04:16:29;10.45;;;5.63;;
37297;SDS011;30517;51.932;4.278;2023-02-08T04:19:10;13.63;;;6.82;;
37297;SDS011;30517;51.932;4.278;2023-02-08T04:21:51;12.45;;;6.32;;
37297;SDS011;30517;51.932;4.278;2023-02-08T04:24:32;10.85;;;6.45;;
37297;SDS011;30517;51.932;4.278;2023-02-08T04:27:13;10.43;;;6.18;;
37297;SDS011;30517;51.932;4.278;2023-02-08T04:29:54;11.38;;;6.15;;
37297;SDS011;30517;51.932;4.278;2023-02-08T04:32:35;9.55;;;5.72;;
37297;SDS011;30517;51.932;4.278;2023-02-08T04:35:15;11.98;;;6.40;;
37297;SDS011;30517;51.932;4.278;2023-02-08T04:37:56;12.90;;;6.65;;
37297;SDS011;30517;51.932;4.278;2023-02-08T04:40:37;10.13;;;5.65;;
37297;SDS011;30517;51.932;4.278;2023-02-08T04:43:18;10.45;;;6.05;;
37297;SDS011;30517;51.932;4.278;2023-02-08T04:45:58;11.95;;;7.07;;
37297;SDS011;30517;51.932;4.278;2023-02-08T04:48:39;10.52;;;5.97;;
37297;SDS011;30517;51.932;4.278;2023-02-08T04:51:20;14.85;;;6.82;;
37297;SDS011;30517;51.932;4.278;2023-02-08T04:54:01;10.15;;;5.82;;
37297;SDS011;30517;51.932;4.278;2023-02-08T04:56:42;10.60;;;5.90;;
37297;SDS011;30517;51.932;4.278;2023-02-08T04:59:22;11.25;;;5.45;;
37297;SDS011;30517;51.932;4.278;2023-02-08T05:02:03;10.35;;;6.25;;
37297;SDS011;30517;51.932;4.278;2023-02-08T05:04:44;9.70;;;6.28;;
37297;SDS011;30517;51.932;4.278;2023-02-08T05:07:25;9.95;;;6.20;;
37297;SDS011;30517;51.932;4.278;2023-02-08T05:10:06;9.57;;;5.28;;
37297;SDS011;30517;51.932;4.278;2023-02-08T05:12:47;15.23;;;7.63;;
37297;SDS011;30517;51.932;4.278;2023-02-08T05:15:28;14.55;;;8.77;;
37297;SDS011;30517;51.932;4.278;2023-02-08T05:18:09;12.98;;;8.10;;
37297;SDS011;30517;51.932;4.278;2023-02-08T05:20:56;19.58;;;8.75;;
37297;SDS011;30517;51.932;4.278;2023-02-08T05:23:38;14.07;;;8.45;;
37297;SDS011;30517;51.932;4.278;2023-02-08T05:26:19;14.57;;;8.63;;
37297;SDS011;30517;51.932;4.278;2023-02-08T05:29:00;13.15;;;7.85;;
37297;SDS011;30517;51.932;4.278;2023-02-08T05:31:41;14.00;;;8.98;;
37297;SDS011;30517;51.932;4.278;2023-02-08T05:34:22;15.27;;;8.68;;
37297;SDS011;30517;51.932;4.278;2023-02-08T05:37:02;13.35;;;8.18;;
37297;SDS011;30517;51.932;4.278;2023-02-08T05:39:44;17.02;;;8.48;;
37297;SDS011;30517;51.932;4.278;2023-02-08T05:42:24;12.40;;;7.18;;
37297;SDS011;30517;51.932;4.278;2023-02-08T05:45:06;10.90;;;7.72;;
37297;SDS011;30517;51.932;4.278;2023-02-08T05:47:47;13.07;;;7.53;;
37297;SDS011;30517;51.932;4.278;2023-02-08T05:50:28;16.13;;;7.82;;
37297;SDS011;30517;51.932;4.278;2023-02-08T05:53:08;14.02;;;8.35;;
37297;SDS011;30517;51.932;4.278;2023-02-08T05:55:52;13.65;;;7.88;;
37297;SDS011;30517;51.932;4.278;2023-02-08T06:01:16;13.27;;;6.88;;
37297;SDS011;30517;51.932;4.278;2023-02-08T06:03:57;14.70;;;9.00;;
37297;SDS011;30517;51.932;4.278;2023-02-08T06:06:39;13.73;;;7.57;;
37297;SDS011;30517;51.932;4.278;2023-02-08T06:09:20;13.20;;;6.75;;
37297;SDS011;30517;51.932;4.278;2023-02-08T06:12:01;9.70;;;6.10;;
37297;SDS011;30517;51.932;4.278;2023-02-08T06:14:41;11.82;;;7.22;;
37297;SDS011;30517;51.932;4.278;2023-02-08T06:17:23;14.23;;;7.60;;
37297;SDS011;30517;51.932;4.278;2023-02-08T06:20:04;12.68;;;7.47;;
37297;SDS011;30517;51.932;4.278;2023-02-08T06:22:45;10.27;;;6.32;;
37297;SDS011;30517;51.932;4.278;2023-02-08T06:25:26;10.85;;;6.85;;
37297;SDS011;30517;51.932;4.278;2023-02-08T06:28:07;13.73;;;7.82;;
37297;SDS011;30517;51.932;4.278;2023-02-08T06:30:49;10.18;;;7.10;;
37297;SDS011;30517;51.932;4.278;2023-02-08T06:33:31;11.75;;;7.43;;
37297;SDS011;30517;51.932;4.278;2023-02-08T06:36:12;11.40;;;6.85;;
37297;SDS011;30517;51.932;4.278;2023-02-08T06:38:52;11.68;;;7.15;;
37297;SDS011;30517;51.932;4.278;2023-02-08T06:41:33;11.98;;;7.18;;
37297;SDS011;30517;51.932;4.278;2023-02-08T06:44:18;11.95;;;7.32;;
37297;SDS011;30517;51.932;4.278;2023-02-08T06:46:58;10.80;;;7.20;;
37297;SDS011;30517;51.932;4.278;2023-02-08T06:49:39;15.45;;;8.38;;
37297;SDS011;30517;51.932;4.278;2023-02-08T06:52:20;13.50;;;7.38;;
37297;SDS011;30517;51.932;4.278;2023-02-08T06:55:01;13.88;;;8.48;;
37297;SDS011;30517;51.932;4.278;2023-02-08T06:57:42;13.75;;;7.32;;
37297;SDS011;30517;51.932;4.278;2023-02-08T07:00:23;12.50;;;7.72;;
37297;SDS011;30517;51.932;4.278;2023-02-08T07:03:04;11.45;;;7.10;;
37297;SDS011;30517;51.932;4.278;2023-02-08T07:05:44;12.52;;;7.03;;
37297;SDS011;30517;51.932;4.278;2023-02-08T07:08:28;9.75;;;6.35;;
37297;SDS011;30517;51.932;4.278;2023-02-08T07:11:09;13.45;;;7.28;;
37297;SDS011;30517;51.932;4.278;2023-02-08T07:13:52;11.23;;;6.57;;
37297;SDS011;30517;51.932;4.278;2023-02-08T07:16:34;11.30;;;6.32;;
37297;SDS011;30517;51.932;4.278;2023-02-08T07:19:14;11.65;;;7.50;;
37297;SDS011;30517;51.932;4.278;2023-02-08T07:21:55;10.15;;;6.07;;
37297;SDS011;30517;51.932;4.278;2023-02-08T07:24:42;12.25;;;7.28;;
37297;SDS011;30517;51.932;4.278;2023-02-08T07:27:22;12.13;;;7.20;;
37297;SDS011;30517;51.932;4.278;2023-02-08T07:30:03;12.52;;;7.63;;
37297;SDS011;30517;51.932;4.278;2023-02-08T07:32:45;15.02;;;8.80;;
37297;SDS011;30517;51.932;4.278;2023-02-08T07:35:25;14.48;;;8.43;;
37297;SDS011;30517;51.932;4.278;2023-02-08T07:38:06;12.95;;;7.30;;
37297;SDS011;30517;51.932;4.278;2023-02-08T07:40:47;11.63;;;8.00;;
37297;SDS011;30517;51.932;4.278;2023-02-08T07:43:28;13.38;;;7.90;;
37297;SDS011;30517;51.932;4.278;2023-02-08T07:46:10;13.13;;;7.90;;
37297;SDS011;30517;51.932;4.278;2023-02-08T07:48:56;13.18;;;7.50;;
37297;SDS011;30517;51.932;4.278;2023-02-08T07:51:37;14.43;;;8.60;;
37297;SDS011;30517;51.932;4.278;2023-02-08T07:54:17;14.90;;;7.88;;
37297;SDS011;30517;51.932;4.278;2023-02-08T07:56:58;12.80;;;8.23;;
37297;SDS011;30517;51.932;4.278;2023-02-08T07:59:39;13.18;;;7.88;;
37297;SDS011;30517;51.932;4.278;2023-02-08T08:02:20;15.02;;;8.10;;
37297;SDS011;30517;51.932;4.278;2023-02-08T08:05:01;11.48;;;7.80;;
37297;SDS011;30517;51.932;4.278;2023-02-08T08:07:41;13.90;;;6.82;;
37297;SDS011;30517;51.932;4.278;2023-02-08T08:10:22;14.02;;;7.22;;
37297;SDS011;30517;51.932;4.278;2023-02-08T08:13:03;10.95;;;6.93;;
37297;SDS011;30517;51.932;4.278;2023-02-08T08:15:45;13.77;;;7.82;;
37297;SDS011;30517;51.932;4.278;2023-02-08T08:18:26;12.45;;;7.47;;
37297;SDS011;30517;51.932;4.278;2023-02-08T08:21:07;11.07;;;6.90;;
37297;SDS011;30517;51.932;4.278;2023-02-08T08:23:48;10.43;;;6.63;;
37297;SDS011;30517;51.932;4.278;2023-02-08T08:26:29;11.98;;;6.70;;
37297;SDS011;30517;51.932;4.278;2023-02-08T08:29:09;10.63;;;6.80;;
37297;SDS011;30517;51.932;4.278;2023-02-08T08:31:50;14.20;;;7.53;;
37297;SDS011;30517;51.932;4.278;2023-02-08T08:34:31;13.38;;;7.70;;
37297;SDS011;30517;51.932;4.278;2023-02-08T08:37:12;13.82;;;7.57;;
37297;SDS011;30517;51.932;4.278;2023-02-08T08:39:53;12.32;;;8.23;;
37297;SDS011;30517;51.932;4.278;2023-02-08T08:42:33;12.25;;;7.00;;
37297;SDS011;30517;51.932;4.278;2023-02-08T08:45:15;12.95;;;7.22;;
37297;SDS011;30517;51.932;4.278;2023-02-08T08:47:56;11.98;;;6.65;;
37297;SDS011;30517;51.932;4.278;2023-02-08T08:50:37;13.52;;;6.85;;
37297;SDS011;30517;51.932;4.278;2023-02-08T08:53:19;13.80;;;7.20;;
37297;SDS011;30517;51.932;4.278;2023-02-08T08:56:01;13.57;;;7.68;;
37297;SDS011;30517;51.932;4.278;2023-02-08T08:58:42;12.70;;;6.90;;
37297;SDS011;30517;51.932;4.278;2023-02-08T09:01:23;10.05;;;6.00;;
37297;SDS011;30517;51.932;4.278;2023-02-08T09:04:04;11.48;;;6.80;;
37297;SDS011;30517;51.932;4.278;2023-02-08T09:06:44;10.45;;;6.70;;
37297;SDS011;30517;51.932;4.278;2023-02-08T09:09:28;10.75;;;6.90;;
37297;SDS011;30517;51.932;4.278;2023-02-08T09:12:08;10.15;;;6.22;;
37297;SDS011;30517;51.932;4.278;2023-02-08T09:14:49;11.55;;;6.43;;
37297;SDS011;30517;51.932;4.278;2023-02-08T09:17:30;11.73;;;7.10;;
37297;SDS011;30517;51.932;4.278;2023-02-08T09:20:11;10.10;;;5.93;;
37297;SDS011;30517;51.932;4.278;2023-02-08T09:22:52;12.07;;;7.78;;
37297;SDS011;30517;51.932;4.278;2023-02-08T09:25:34;11.38;;;6.60;;
37297;SDS011;30517;51.932;4.278;2023-02-08T09:28:18;11.18;;;6.55;;
37297;SDS011;30517;51.932;4.278;2023-02-08T09:30:59;10.00;;;5.90;;
37297;SDS011;30517;51.932;4.278;2023-02-08T09:33:47;11.90;;;7.00;;
37297;SDS011;30517;51.932;4.278;2023-02-08T09:36:31;12.30;;;7.40;;
37297;SDS011;30517;51.932;4.278;2023-02-08T09:39:15;10.88;;;7.25;;
37297;SDS011;30517;51.932;4.278;2023-02-08T09:42:02;10.50;;;5.97;;
37297;SDS011;30517;51.932;4.278;2023-02-08T09:45:25;12.23;;;6.78;;
37297;SDS011;30517;51.932;4.278;2023-02-08T09:48:28;10.75;;;6.70;;
37297;SDS011;30517;51.932;4.278;2023-02-08T09:54:18;11.55;;;6.65;;
37297;SDS011;30517;51.932;4.278;2023-02-08T09:57:04;11.23;;;6.50;;
37297;SDS011;30517;51.932;4.278;2023-02-08T09:59:59;10.95;;;6.72;;
37297;SDS011;30517;51.932;4.278;2023-02-08T10:02:43;9.80;;;6.20;;
37297;SDS011;30517;51.932;4.278;2023-02-08T10:05:28;9.38;;;6.32;;
37297;SDS011;30517;51.932;4.278;2023-02-08T10:08:10;17.45;;;7.05;;
37297;SDS011;30517;51.932;4.278;2023-02-08T10:10:55;9.73;;;6.43;;
37297;SDS011;30517;51.932;4.278;2023-02-08T10:13:56;12.57;;;6.55;;
37297;SDS011;30517;51.932;4.278;2023-02-08T10:16:52;9.15;;;5.82;;
37297;SDS011;30517;51.932;4.278;2023-02-08T10:31:20;10.52;;;5.85;;
37297;SDS011;30517;51.932;4.278;2023-02-08T10:37:31;8.70;;;4.88;;
37297;SDS011;30517;51.932;4.278;2023-02-08T10:40:25;11.18;;;6.18;;
37297;SDS011;30517;51.932;4.278;2023-02-08T10:46:37;11.18;;;6.90;;
37297;SDS011;30517;51.932;4.278;2023-02-08T10:49:32;10.05;;;6.05;;
37297;SDS011;30517;51.932;4.278;2023-02-08T10:52:19;8.40;;;5.53;;
37297;SDS011;30517;51.932;4.278;2023-02-08T10:55:00;9.25;;;5.35;;
37297;SDS011;30517;51.932;4.278;2023-02-08T10:57:41;11.50;;;7.50;;
37297;SDS011;30517;51.932;4.278;2023-02-08T11:00:25;10.95;;;6.72;;
37297;SDS011;30517;51.932;4.278;2023-02-08T11:03:17;12.50;;;7.63;;
37297;SDS011;30517;51.932;4.278;2023-02-08T11:06:01;11.27;;;6.60;;
37297;SDS011;30517;51.932;4.278;2023-02-08T11:08:53;12.43;;;7.05;;
37297;SDS011;30517;51.932;4.278;2023-02-08T11:11:37;11.40;;;6.43;;
37297;SDS011;30517;51.932;4.278;2023-02-08T11:14:26;11.40;;;6.55;;
37297;SDS011;30517;51.932;4.278;2023-02-08T11:17:25;11.38;;;6.30;;
37297;SDS011;30517;51.932;4.278;2023-02-08T11:20:18;11.63;;;6.68;;
37297;SDS011;30517;51.932;4.278;2023-02-08T11:23:03;11.07;;;7.28;;
37297;SDS011;30517;51.932;4.278;2023-02-08T11:29:18;12.73;;;7.43;;
37297;SDS011;30517;51.932;4.278;2023-02-08T11:32:17;10.20;;;6.40;;
37297;SDS011;30517;51.932;4.278;2023-02-08T11:35:10;10.55;;;6.38;;
37297;SDS011;30517;51.932;4.278;2023-02-08T11:37:53;8.95;;;5.65;;
37297;SDS011;30517;51.932;4.278;2023-02-08T11:40:37;11.93;;;6.85;;
37297;SDS011;30517;51.932;4.278;2023-02-08T11:43:31;10.88;;;7.03;;
37297;SDS011;30517;51.932;4.278;2023-02-08T11:46:14;10.05;;;6.22;;
37297;SDS011;30517;51.932;4.278;2023-02-08T11:49:05;10.43;;;6.00;;
37297;SDS011;30517;51.932;4.278;2023-02-08T11:52:00;9.10;;;5.57;;
37297;SDS011;30517;51.932;4.278;2023-02-08T11:54:41;9.90;;;6.30;;
37297;SDS011;30517;51.932;4.278;2023-02-08T11:57:23;10.00;;;6.38;;
37297;SDS011;30517;51.932;4.278;2023-02-08T12:00:11;9.93;;;5.75;;
37297;SDS011;30517;51.932;4.278;2023-02-08T12:03:01;8.68;;;5.68;;
37297;SDS011;30517;51.932;4.278;2023-02-08T12:14:56;8.75;;;6.43;;
37297;SDS011;30517;51.932;4.278;2023-02-08T12:20:56;8.85;;;5.75;;
37297;SDS011;30517;51.932;4.278;2023-02-08T12:23:45;10.13;;;6.57;;
37297;SDS011;30517;51.932;4.278;2023-02-08T12:29:31;9.63;;;5.15;;
37297;SDS011;30517;51.932;4.278;2023-02-08T12:38:20;9.38;;;5.30;;
37297;SDS011;30517;51.932;4.278;2023-02-08T12:47:19;9.57;;;5.72;;
37297;SDS011;30517;51.932;4.278;2023-02-08T12:50:16;10.55;;;5.97;;
37297;SDS011;30517;51.932;4.278;2023-02-08T12:53:18;9.40;;;5.05;;
37297;SDS011;30517;51.932;4.278;2023-02-08T13:01:34;10.13;;;5.45;;
37297;SDS011;30517;51.932;4.278;2023-02-08T13:04:22;8.38;;;5.20;;
37297;SDS011;30517;51.932;4.278;2023-02-08T13:07:15;10.93;;;7.07;;
37297;SDS011;30517;51.932;4.278;2023-02-08T13:10:13;11.55;;;7.20;;
37297;SDS011;30517;51.932;4.278;2023-02-08T13:16:06;11.20;;;6.28;;
37297;SDS011;30517;51.932;4.278;2023-02-08T13:19:06;10.38;;;5.90;;
37297;SDS011;30517;51.932;4.278;2023-02-08T13:22:00;9.45;;;6.15;;
37297;SDS011;30517;51.932;4.278;2023-02-08T13:24:44;9.77;;;6.13;;
37297;SDS011;30517;51.932;4.278;2023-02-08T13:27:27;13.90;;;6.68;;
37297;SDS011;30517;51.932;4.278;2023-02-08T13:30:15;11.00;;;6.70;;
37297;SDS011;30517;51.932;4.278;2023-02-08T13:33:03;13.40;;;7.75;;
37297;SDS011;30517;51.932;4.278;2023-02-08T13:35:54;14.50;;;7.50;;
37297;SDS011;30517;51.932;4.278;2023-02-08T13:38:35;13.05;;;7.22;;
37297;SDS011;30517;51.932;4.278;2023-02-08T13:44:07;13.05;;;8.50;;
37297;SDS011;30517;51.932;4.278;2023-02-08T13:46:57;11.20;;;7.97;;
37297;SDS011;30517;51.932;4.278;2023-02-08T14:01:29;12.10;;;7.60;;
37297;SDS011;30517;51.932;4.278;2023-02-08T14:06:58;14.52;;;7.82;;
37297;SDS011;30517;51.932;4.278;2023-02-08T14:10:45;13.13;;;7.60;;
37297;SDS011;30517;51.932;4.278;2023-02-08T14:22:02;10.35;;;6.95;;
37297;SDS011;30517;51.932;4.278;2023-02-08T14:24:59;12.27;;;7.40;;
37297;SDS011;30517;51.932;4.278;2023-02-08T14:27:48;11.13;;;7.82;;
37297;SDS011;30517;51.932;4.278;2023-02-08T14:30:37;12.00;;;6.53;;
37297;SDS011;30517;51.932;4.278;2023-02-08T14:33:20;10.07;;;7.10;;
37297;SDS011;30517;51.932;4.278;2023-02-08T14:36:15;11.63;;;6.70;;
37297;SDS011;30517;51.932;4.278;2023-02-08T14:39:04;11.77;;;7.18;;
37297;SDS011;30517;51.932;4.278;2023-02-08T14:44:44;9.93;;;6.70;;
37297;SDS011;30517;51.932;4.278;2023-02-08T14:50:20;11.63;;;6.78;;
37297;SDS011;30517;51.932;4.278;2023-02-08T14:53:05;11.65;;;6.25;;
37297;SDS011;30517;51.932;4.278;2023-02-08T14:59:15;10.07;;;6.15;;
37297;SDS011;30517;51.932;4.278;2023-02-08T15:02:00;11.20;;;6.60;;
37297;SDS011;30517;51.932;4.278;2023-02-08T15:04:49;10.85;;;6.57;;
37297;SDS011;30517;51.932;4.278;2023-02-08T15:10:33;11.35;;;6.82;;
37297;SDS011;30517;51.932;4.278;2023-02-08T15:13:19;9.38;;;6.05;;
37297;SDS011;30517;51.932;4.278;2023-02-08T15:16:03;11.82;;;6.18;;
37297;SDS011;30517;51.932;4.278;2023-02-08T15:18:45;10.23;;;6.10;;
37297;SDS011;30517;51.932;4.278;2023-02-08T15:26:56;8.45;;;5.53;;
37297;SDS011;30517;51.932;4.278;2023-02-08T15:29:39;10.68;;;5.57;;
37297;SDS011;30517;51.932;4.278;2023-02-08T15:32:23;10.57;;;5.47;;
37297;SDS011;30517;51.932;4.278;2023-02-08T15:35:12;8.82;;;5.57;;
37297;SDS011;30517;51.932;4.278;2023-02-08T15:37:57;9.68;;;5.38;;
37297;SDS011;30517;51.932;4.278;2023-02-08T15:40:39;9.43;;;5.78;;
37297;SDS011;30517;51.932;4.278;2023-02-08T15:43:20;8.95;;;5.90;;
37297;SDS011;30517;51.932;4.278;2023-02-08T15:46:02;8.43;;;5.38;;
37297;SDS011;30517;51.932;4.278;2023-02-08T15:48:59;10.35;;;5.47;;
37297;SDS011;30517;51.932;4.278;2023-02-08T15:51:41;8.32;;;4.88;;
37297;SDS011;30517;51.932;4.278;2023-02-08T15:54:25;7.82;;;5.18;;
37297;SDS011;30517;51.932;4.278;2023-02-08T15:57:07;7.90;;;5.15;;
37297;SDS011;30517;51.932;4.278;2023-02-08T15:59:59;8.70;;;4.93;;
37297;SDS011;30517;51.932;4.278;2023-02-08T16:02:41;7.68;;;4.80;;
37297;SDS011;30517;51.932;4.278;2023-02-08T16:05:23;9.25;;;5.20;;
37297;SDS011;30517;51.932;4.278;2023-02-08T16:08:06;10.77;;;5.78;;
37297;SDS011;30517;51.932;4.278;2023-02-08T16:10:47;8.88;;;5.45;;
37297;SDS011;30517;51.932;4.278;2023-02-08T16:13:33;8.80;;;5.20;;
37297;SDS011;30517;51.932;4.278;2023-02-08T16:19:30;8.35;;;5.28;;
37297;SDS011;30517;51.932;4.278;2023-02-08T16:24:53;8.65;;;5.40;;
37297;SDS011;30517;51.932;4.278;2023-02-08T16:27:54;9.55;;;5.15;;
37297;SDS011;30517;51.932;4.278;2023-02-08T16:30:34;8.73;;;4.60;;
37297;SDS011;30517;51.932;4.278;2023-02-08T16:33:15;7.68;;;4.70;;
37297;SDS011;30517;51.932;4.278;2023-02-08T16:35:56;8.23;;;4.68;;
37297;SDS011;30517;51.932;4.278;2023-02-08T16:38:41;7.90;;;4.90;;
37297;SDS011;30517;51.932;4.278;2023-02-08T16:41:55;7.93;;;4.95;;
37297;SDS011;30517;51.932;4.278;2023-02-08T16:44:36;8.75;;;5.35;;
37297;SDS011;30517;51.932;4.278;2023-02-08T16:47:23;8.25;;;5.47;;
37297;SDS011;30517;51.932;4.278;2023-02-08T16:50:19;7.43;;;4.20;;
37297;SDS011;30517;51.932;4.278;2023-02-08T16:53:02;7.07;;;4.75;;
37297;SDS011;30517;51.932;4.278;2023-02-08T16:55:43;8.50;;;5.22;;
37297;SDS011;30517;51.932;4.278;2023-02-08T16:58:25;9.15;;;4.75;;
37297;SDS011;30517;51.932;4.278;2023-02-08T17:01:07;8.38;;;4.35;;
37297;SDS011;30517;51.932;4.278;2023-02-08T17:03:51;8.23;;;5.25;;
37297;SDS011;30517;51.932;4.278;2023-02-08T17:06:34;7.65;;;4.60;;
37297;SDS011;30517;51.932;4.278;2023-02-08T17:09:16;7.38;;;4.60;;
37297;SDS011;30517;51.932;4.278;2023-02-08T17:11:57;6.70;;;4.13;;
37297;SDS011;30517;51.932;4.278;2023-02-08T17:14:38;8.25;;;4.60;;
37297;SDS011;30517;51.932;4.278;2023-02-08T17:17:19;9.38;;;5.38;;
37297;SDS011;30517;51.932;4.278;2023-02-08T17:20:00;8.20;;;4.80;;
37297;SDS011;30517;51.932;4.278;2023-02-08T17:22:41;7.30;;;4.47;;
37297;SDS011;30517;51.932;4.278;2023-02-08T17:25:22;7.20;;;4.28;;
37297;SDS011;30517;51.932;4.278;2023-02-08T17:28:08;6.10;;;3.97;;
37297;SDS011;30517;51.932;4.278;2023-02-08T17:33:39;7.00;;;3.67;;
37297;SDS011;30517;51.932;4.278;2023-02-08T17:36:20;6.97;;;4.05;;
37297;SDS011;30517;51.932;4.278;2023-02-08T17:39:01;6.65;;;4.30;;
37297;SDS011;30517;51.932;4.278;2023-02-08T17:41:44;7.78;;;4.43;;
37297;SDS011;30517;51.932;4.278;2023-02-08T17:44:24;7.05;;;4.00;;
37297;SDS011;30517;51.932;4.278;2023-02-08T17:47:05;6.88;;;4.28;;
37297;SDS011;30517;51.932;4.278;2023-02-08T17:49:46;7.95;;;4.90;;
37297;SDS011;30517;51.932;4.278;2023-02-08T17:52:27;8.20;;;4.95;;
37297;SDS011;30517;51.932;4.278;2023-02-08T17:55:08;7.53;;;4.40;;
37297;SDS011;30517;51.932;4.278;2023-02-08T17:57:50;8.43;;;4.72;;
37297;SDS011;30517;51.932;4.278;2023-02-08T18:00:32;8.88;;;4.68;;
37297;SDS011;30517;51.932;4.278;2023-02-08T18:03:13;8.38;;;4.28;;
37297;SDS011;30517;51.932;4.278;2023-02-08T18:05:56;7.10;;;4.45;;
37297;SDS011;30517;51.932;4.278;2023-02-08T18:08:40;6.28;;;3.90;;
37297;SDS011;30517;51.932;4.278;2023-02-08T18:11:22;8.65;;;4.03;;
37297;SDS011;30517;51.932;4.278;2023-02-08T18:14:03;8.15;;;4.25;;
37297;SDS011;30517;51.932;4.278;2023-02-08T18:16:43;7.60;;;4.43;;
37297;SDS011;30517;51.932;4.278;2023-02-08T18:19:24;8.32;;;4.30;;
37297;SDS011;30517;51.932;4.278;2023-02-08T18:22:05;7.47;;;4.43;;
37297;SDS011;30517;51.932;4.278;2023-02-08T18:24:47;7.15;;;4.25;;
37297;SDS011;30517;51.932;4.278;2023-02-08T18:27:28;7.38;;;4.50;;
37297;SDS011;30517;51.932;4.278;2023-02-08T18:30:10;7.47;;;4.70;;
37297;SDS011;30517;51.932;4.278;2023-02-08T18:32:51;8.15;;;4.55;;
37297;SDS011;30517;51.932;4.278;2023-02-08T18:35:32;6.82;;;3.90;;
37297;SDS011;30517;51.932;4.278;2023-02-08T18:38:13;7.30;;;4.25;;
37297;SDS011;30517;51.932;4.278;2023-02-08T18:40:54;6.30;;;3.83;;
37297;SDS011;30517;51.932;4.278;2023-02-08T18:43:35;8.80;;;4.35;;
37297;SDS011;30517;51.932;4.278;2023-02-08T18:46:17;7.22;;;3.92;;
37297;SDS011;30517;51.932;4.278;2023-02-08T18:49:00;6.65;;;3.97;;
37297;SDS011;30517;51.932;4.278;2023-02-08T18:51:41;6.82;;;4.30;;
37297;SDS011;30517;51.932;4.278;2023-02-08T18:54:25;8.30;;;4.32;;